Time;durP1;ratioP1;P1;durP2;ratioP2;P2;SDS_P1;SDS_P2;PMS_P1;PMS_P2;Temp;Humidity;BMP_temperature;BMP_pressure;BME280_temperature;BME280_humidity;BME280_pressure;Samples;Min_cycle;Max_cycle;Signal;HPM_P1;HPM_P2
2023/05/16 00:00:14;;;;;;;6.50;4.40;;;;;;;10.14;85.36;100665.13;107743;1257;61214;-67
2023/05/16 00:02:41;;;;;;;6.00;4.40;;;;;;;10.14;85.61;100676.63;107374;1257;59326;-69
2023/05/16 00:05:09;;;;;;;6.00;4.70;;;;;;;10.11;85.75;100675.63;107410;1256;73496;-68
2023/05/16 00:07:36;;;;;;;6.10;4.30;;;;;;;10.10;86.02;100675.39;107903;1257;71694;-67
2023/05/16 00:10:02;;;;;;;6.30;4.20;;;;;;;10.09;86.18;100673.30;107535;1257;61275;-69
2023/05/16 00:12:29;;;;;;;5.70;4.20;;;;;;;10.11;86.28;100678.80;107517;1257;61744;-68
2023/05/16 00:14:55;;;;;;;6.20;4.40;;;;;;;10.09;86.38;100675.42;107615;1257;59025;-68
2023/05/16 00:17:22;;;;;;;10.40;4.40;;;;;;;10.10;86.44;100672.20;108046;1260;74815;-69
2023/05/16 00:19:57;;;;;;;7.50;4.30;;;;;;;10.14;86.19;100673.68;107419;1260;70035;-69
2023/05/16 00:22:24;;;;;;;6.80;3.90;;;;;;;10.16;86.28;100674.17;107717;1257;72962;-69
2023/05/16 00:24:50;;;;;;;5.70;3.70;;;;;;;10.15;86.56;100669.71;107317;1257;60757;-68
2023/05/16 00:27:17;;;;;;;8.10;4.30;;;;;;;10.14;86.88;100667.45;107900;1256;61502;-68
2023/05/16 00:29:43;;;;;;;8.00;4.40;;;;;;;10.14;86.94;100663.02;107451;1260;61122;-67
2023/05/16 00:32:10;;;;;;;5.80;4.50;;;;;;;10.14;87.06;100668.71;107505;1257;61305;-68
2023/05/16 00:34:37;;;;;;;5.70;4.70;;;;;;;10.12;87.66;100668.43;107573;1261;61262;-69
2023/05/16 00:37:04;;;;;;;5.70;4.20;;;;;;;10.10;87.51;100675.33;107397;1256;61228;-68
2023/05/16 00:39:31;;;;;;;6.10;3.90;;;;;;;10.08;87.57;100674.30;107508;1260;61205;-66
2023/05/16 00:41:57;;;;;;;6.10;4.50;;;;;;;10.08;87.73;100669.70;107468;1257;74656;-68
2023/05/16 00:44:24;;;;;;;5.40;4.30;;;;;;;10.11;87.74;100667.87;107806;1256;71070;-69
2023/05/16 00:46:51;;;;;;;6.90;4.10;;;;;;;10.10;87.91;100668.82;107721;1260;72421;-69
2023/05/16 00:49:18;;;;;;;7.80;4.30;;;;;;;10.13;87.86;100660.08;107911;1257;61723;-67
2023/05/16 00:51:44;;;;;;;5.60;3.90;;;;;;;10.15;87.51;100668.77;107671;1258;59743;-68
2023/05/16 00:54:11;;;;;;;5.50;3.90;;;;;;;10.16;87.66;100670.93;107103;1257;74527;-67
2023/05/16 00:56:38;;;;;;;5.00;4.20;;;;;;;10.18;87.45;100668.43;107459;1260;69883;-69
2023/05/16 00:59:05;;;;;;;7.20;4.40;;;;;;;10.18;87.80;100674.09;107682;1258;72958;-68
2023/05/16 01:01:33;;;;;;;6.90;4.00;;;;;;;10.17;87.85;100679.16;107796;1257;61157;-68
2023/05/16 01:04:00;;;;;;;5.60;4.00;;;;;;;10.19;87.85;100674.45;107709;1257;59126;-69
2023/05/16 01:06:27;;;;;;;6.50;3.90;;;;;;;10.23;87.46;100674.30;107908;1257;74460;-68
2023/05/16 01:08:53;;;;;;;7.00;3.80;;;;;;;10.21;87.37;100678.48;107546;1261;71175;-68
2023/05/16 01:12:07;;;;;;;6.20;3.60;;;;;;;10.22;87.55;100669.41;107389;1256;61132;-69
2023/05/16 01:15:04;;;;;;;7.80;4.00;;;;;;;10.23;87.84;100667.05;107451;1257;61726;-70
2023/05/16 01:17:54;;;;;;;6.40;3.30;;;;;;;10.21;87.57;100666.14;107944;1257;61128;-69
2023/05/16 01:20:41;;;;;;;5.80;3.40;;;;;;;10.22;87.75;100677.73;107477;1257;74625;-69
2023/05/16 01:23:40;;;;;;;4.70;3.10;;;;;;;10.22;87.88;100667.77;107873;1262;69935;-68
2023/05/16 01:26:27;;;;;;;4.70;3.00;;;;;;;10.25;87.46;100676.36;107372;1257;71770;-68
2023/05/16 01:28:54;;;;;;;4.60;2.70;;;;;;;10.26;87.41;100679.25;107238;1256;60083;-68
2023/05/16 01:31:22;;;;;;;4.80;2.60;;;;;;;10.25;87.37;100675.70;107551;1260;61158;-68
2023/05/16 01:33:49;;;;;;;5.00;2.50;;;;;;;10.25;87.10;100676.39;107565;1257;73540;-67
2023/05/16 01:36:31;;;;;;;5.30;2.50;;;;;;;10.26;87.14;100680.32;107746;1256;70014;-68
2023/05/16 01:39:01;;;;;;;3.60;2.30;;;;;;;10.25;87.08;100681.45;107791;1260;72697;-69
2023/05/16 01:41:41;;;;;;;4.50;2.40;;;;;;;10.25;87.22;100677.88;107876;1257;61221;-67
2023/05/16 01:44:27;;;;;;;5.20;2.40;;;;;;;10.27;87.22;100676.44;107738;1257;61162;-67
2023/05/16 01:46:58;;;;;;;5.70;2.30;;;;;;;10.30;86.88;100680.93;107473;1256;73130;-69
2023/05/16 01:49:55;;;;;;;7.20;2.40;;;;;;;10.32;86.89;100681.23;107837;1257;72953;-67
2023/05/16 01:52:55;;;;;;;6.00;2.30;;;;;;;10.32;86.72;100684.73;107822;1259;72711;-68
2023/05/16 01:55:43;;;;;;;5.80;2.80;;;;;;;10.33;86.62;100686.96;106951;1256;61260;-68
2023/05/16 01:58:11;;;;;;;5.30;2.20;;;;;;;10.35;86.30;100690.05;108239;1258;61244;-68
2023/05/16 02:00:39;;;;;;;4.50;2.30;;;;;;;10.39;86.39;100685.39;108712;1259;74192;-68
2023/05/16 02:03:07;;;;;;;6.10;2.40;;;;;;;10.40;86.29;100687.17;108688;1257;71091;-68
2023/05/16 02:05:33;;;;;;;6.90;2.60;;;;;;;10.42;85.79;100685.04;108130;1258;71408;-68
2023/05/16 02:08:00;;;;;;;6.90;2.90;;;;;;;10.42;85.90;100687.36;108674;1257;59070;-68
2023/05/16 02:10:27;;;;;;;5.40;2.80;;;;;;;10.40;86.01;100687.08;107958;1257;60426;-68
2023/05/16 02:12:53;;;;;;;7.90;2.90;;;;;;;10.41;85.72;100682.00;107546;1258;73480;-67
2023/05/16 02:15:20;;;;;;;6.50;3.10;;;;;;;10.43;85.81;100680.03;107623;1257;61293;-67
2023/05/16 02:17:47;;;;;;;5.80;3.00;;;;;;;10.41;85.68;100680.66;107555;1260;72339;-68
2023/05/16 02:20:14;;;;;;;6.80;3.00;;;;;;;10.40;85.53;100683.47;107887;1257;62709;-68
2023/05/16 02:22:45;;;;;;;6.30;3.10;;;;;;;10.40;85.57;100684.69;107312;1262;61352;-69
2023/05/16 02:25:14;;;;;;;6.60;2.70;;;;;;;10.42;85.48;100686.44;107472;1256;75501;-68
2023/05/16 02:27:42;;;;;;;8.90;3.30;;;;;;;10.41;85.22;100686.52;107395;1257;70955;-68
2023/05/16 02:30:10;;;;;;;9.90;3.80;;;;;;;10.40;85.31;100686.11;108192;1257;71823;-68
2023/05/16 02:32:43;;;;;;;7.30;3.10;;;;;;;10.42;85.44;100681.83;108668;1258;60551;-68
2023/05/16 02:35:10;;;;;;;7.60;3.30;;;;;;;10.38;85.65;100695.61;108808;1257;59168;-68
2023/05/16 02:37:37;;;;;;;10.20;3.60;;;;;;;10.38;85.51;100691.16;108847;1258;73633;-68
2023/05/16 02:40:07;;;;;;;10.30;3.40;;;;;;;10.41;85.61;100690.30;108736;1260;70435;-67
2023/05/16 02:42:34;;;;;;;7.80;3.50;;;;;;;10.45;85.53;100688.98;108818;1256;71394;-67
2023/05/16 02:45:01;;;;;;;7.70;3.90;;;;;;;10.48;85.04;100691.21;108226;1257;61593;-68
2023/05/16 02:47:28;;;;;;;8.00;4.10;;;;;;;10.50;84.92;100691.21;107859;1262;61144;-68
2023/05/16 02:49:55;;;;;;;7.90;4.00;;;;;;;10.48;84.83;100694.92;107791;1258;75382;-68
2023/05/16 02:52:21;;;;;;;11.00;4.40;;;;;;;10.48;85.19;100699.21;107756;1260;71036;-68
2023/05/16 02:54:48;;;;;;;9.60;4.60;;;;;;;10.48;85.36;100701.36;107260;1260;62328;-69
2023/05/16 02:57:34;;;;;;;8.50;4.60;;;;;;;10.48;85.71;100702.09;108081;1257;63096;-68
2023/05/16 03:00:01;;;;;;;11.90;5.00;;;;;;;10.42;86.79;100707.31;108168;1258;59314;-68
2023/05/16 03:02:27;;;;;;;9.50;5.20;;;;;;;10.39;87.35;100709.99;107335;1258;60656;-69
2023/05/16 03:04:54;;;;;;;10.00;5.10;;;;;;;10.32;88.14;100721.13;107716;1257;69705;-69
2023/05/16 03:07:21;;;;;;;8.80;4.50;;;;;;;10.19;90.73;100718.83;108432;1260;72773;-69
2023/05/16 03:09:48;;;;;;;8.70;4.70;;;;;;;10.06;92.28;100721.76;108807;1262;59550;-69
2023/05/16 03:12:14;;;;;;;12.40;5.40;;;;;;;9.94;93.40;100724.28;107370;1257;59323;-68
2023/05/16 03:14:41;;;;;;;13.00;5.90;;;;;;;9.90;93.50;100721.21;107072;1260;61358;-69
2023/05/16 03:17:08;;;;;;;14.10;6.60;;;;;;;9.86;94.63;100724.00;107693;1260;70497;-67
2023/05/16 03:19:34;;;;;;;14.30;6.10;;;;;;;9.80;95.29;100723.21;106927;1257;71192;-69
2023/05/16 03:22:01;;;;;;;15.30;7.10;;;;;;;9.74;95.66;100725.05;106943;1257;61728;-69
2023/05/16 03:24:27;;;;;;;12.80;6.20;;;;;;;9.69;96.56;100730.96;107124;1262;61380;-68
2023/05/16 03:26:54;;;;;;;14.40;6.90;;;;;;;9.67;96.88;100730.84;106904;1262;73519;-70
2023/05/16 03:29:21;;;;;;;17.00;8.10;;;;;;;9.65;97.24;100735.86;107493;1260;68972;-69
2023/05/16 03:31:48;;;;;;;12.30;7.40;;;;;;;9.60;98.03;100743.39;106986;1256;72944;-71
2023/05/16 03:34:15;;;;;;;13.30;6.90;;;;;;;9.58;98.32;100745.77;107407;1257;61261;-67
2023/05/16 03:36:42;;;;;;;11.00;6.80;;;;;;;9.52;99.00;100755.44;106812;1257;61243;-72
2023/05/16 03:39:08;;;;;;;12.70;6.50;;;;;;;9.45;99.92;100754.09;107318;1256;74750;-69
2023/05/16 03:41:35;;;;;;;11.90;6.30;;;;;;;9.38;100.00;100750.85;107487;1260;69129;-69
2023/05/16 03:44:02;;;;;;;11.60;5.30;;;;;;;9.35;100.00;100751.71;106995;1257;70475;-69
2023/05/16 03:46:29;;;;;;;7.30;4.10;;;;;;;9.31;100.00;100759.78;107026;1258;61358;-69
2023/05/16 03:48:55;;;;;;;9.90;4.70;;;;;;;9.25;100.00;100757.63;107177;1260;60359;-69
2023/05/16 03:51:22;;;;;;;7.80;3.60;;;;;;;9.23;99.97;100756.80;107462;1257;74382;-67
2023/05/16 03:53:49;;;;;;;8.90;3.20;;;;;;;9.19;99.64;100752.11;106651;1263;71038;-68
2023/05/16 03:56:16;;;;;;;7.70;3.40;;;;;;;9.17;98.98;100754.74;107415;1257;72687;-68
2023/05/16 03:58:43;;;;;;;9.70;3.10;;;;;;;9.17;98.58;100758.29;107447;1260;59676;-68
2023/05/16 04:01:09;;;;;;;9.90;2.80;;;;;;;9.13;97.62;100763.44;107076;1257;61257;-67
2023/05/16 04:03:37;;;;;;;9.30;3.10;;;;;;;9.11;96.99;100758.70;107244;1257;74442;-68
2023/05/16 04:06:07;;;;;;;6.90;2.90;;;;;;;9.11;97.49;100761.95;107660;1258;70985;-68
2023/05/16 04:08:34;;;;;;;6.40;2.30;;;;;;;9.11;97.79;100764.96;106878;1262;71759;-69
2023/05/16 04:11:00;;;;;;;6.60;2.50;;;;;;;9.11;97.58;100758.21;106994;1260;61276;-68
2023/05/16 04:13:27;;;;;;;7.60;2.90;;;;;;;9.15;97.98;100759.91;106740;1257;61289;-70
2023/05/16 04:15:54;;;;;;;7.90;3.20;;;;;;;9.18;98.22;100759.90;107041;1260;73151;-68
2023/05/16 04:18:20;;;;;;;9.90;3.10;;;;;;;9.21;97.97;100767.52;107300;1258;71024;-69
2023/05/16 04:20:47;;;;;;;6.70;3.40;;;;;;;9.26;97.98;100769.27;106633;1258;72955;-69
2023/05/16 04:23:13;;;;;;;9.30;3.50;;;;;;;9.33;97.58;100773.34;106844;1261;61214;-69
2023/05/16 04:25:41;;;;;;;8.20;3.20;;;;;;;9.40;97.44;100772.56;107081;1257;61235;-69
2023/05/16 04:28:08;;;;;;;9.10;3.10;;;;;;;9.46;96.95;100774.27;106831;1263;74426;-68
2023/05/16 04:30:36;;;;;;;7.90;2.80;;;;;;;9.53;96.57;100779.64;106915;1257;69655;-70
2023/05/16 04:33:02;;;;;;;9.00;3.40;;;;;;;9.59;95.84;100780.20;107155;1262;71224;-69
2023/05/16 04:35:29;;;;;;;10.90;3.30;;;;;;;9.64;95.30;100788.88;107455;1260;61243;-68
2023/05/16 04:37:56;;;;;;;10.50;3.20;;;;;;;9.68;94.24;100786.58;106693;1258;61132;-68
2023/05/16 04:40:24;;;;;;;11.30;3.70;;;;;;;9.70;93.69;100790.02;108154;1257;73455;-69
2023/05/16 04:42:52;;;;;;;8.60;3.40;;;;;;;9.74;93.18;100788.17;108877;1257;69692;-72
2023/05/16 04:45:18;;;;;;;12.80;3.00;;;;;;;9.73;91.97;100801.15;107450;1256;70539;-71
2023/05/16 04:47:45;;;;;;;12.00;3.10;;;;;;;9.75;91.86;100798.45;107605;1257;62131;-71
2023/05/16 04:50:12;;;;;;;11.90;3.20;;;;;;;9.75;91.28;100807.10;108733;1261;60327;-71
2023/05/16 04:52:38;;;;;;;13.80;3.30;;;;;;;9.75;90.85;100809.36;107628;1257;59564;-72
2023/05/16 04:55:06;;;;;;;8.90;2.80;;;;;;;9.74;90.97;100813.37;107233;1258;70191;-71
2023/05/16 04:57:32;;;;;;;13.60;3.00;;;;;;;9.71;90.50;100821.31;107477;1257;72716;-69
2023/05/16 04:59:59;;;;;;;10.00;2.40;;;;;;;9.66;90.22;100826.05;107283;1257;61358;-70
2023/05/16 05:02:26;;;;;;;11.90;2.60;;;;;;;9.60;90.20;100828.90;107394;1257;61281;-70
2023/05/16 05:04:53;;;;;;;8.00;2.50;;;;;;;9.56;90.15;100825.09;106931;1262;73617;-71
2023/05/16 05:07:20;;;;;;;11.70;2.40;;;;;;;9.52;89.73;100831.11;107622;1260;70887;-71
2023/05/16 05:09:47;;;;;;;13.20;2.80;;;;;;;9.51;89.67;100836.54;107249;1258;71985;-70
2023/05/16 05:12:13;;;;;;;9.50;2.80;;;;;;;9.51;89.56;100838.86;107222;1257;60423;-70
2023/05/16 05:14:40;;;;;;;9.40;2.80;;;;;;;9.48;89.07;100844.41;106951;1257;61151;-70
2023/05/16 05:17:07;;;;;;;8.80;2.00;;;;;;;9.45;87.84;100844.61;107388;1258;76168;-71
2023/05/16 05:19:33;;;;;;;9.10;2.10;;;;;;;9.47;88.12;100845.07;107299;1262;69868;-70
2023/05/16 05:22:00;;;;;;;11.00;3.00;;;;;;;9.47;88.10;100854.81;107052;1257;71659;-71
2023/05/16 05:24:27;;;;;;;11.60;2.50;;;;;;;9.44;86.92;100862.17;107243;1257;60945;-71
2023/05/16 05:26:54;;;;;;;9.30;2.20;;;;;;;9.47;86.88;100867.55;107607;1257;61352;-70
2023/05/16 05:29:21;;;;;;;10.80;2.50;;;;;;;9.47;86.48;100867.31;107076;1260;74660;-71
2023/05/16 05:31:48;;;;;;;8.80;2.10;;;;;;;9.50;85.86;100873.71;108429;1258;71448;-70
2023/05/16 05:34:15;;;;;;;9.60;2.30;;;;;;;9.53;85.52;100876.60;107086;1263;71589;-70
2023/05/16 05:36:42;;;;;;;10.60;2.50;;;;;;;9.53;84.52;100874.45;107285;1257;61123;-74
2023/05/16 05:39:10;;;;;;;11.20;3.00;;;;;;;9.54;83.18;100872.59;106879;1257;61112;-70
2023/05/16 05:41:41;;;;;;;9.00;1.90;;;;;;;9.56;82.80;100882.73;107042;1257;72065;-71
2023/05/16 05:44:09;;;;;;;14.10;2.40;;;;;;;9.58;82.40;100881.34;107043;1257;71902;-68
2023/05/16 05:46:53;;;;;;;12.90;2.10;;;;;;;9.62;82.21;100892.04;107571;1256;72705;-70
2023/05/16 05:49:22;;;;;;;13.30;2.40;;;;;;;9.67;81.77;100888.73;106588;1260;61344;-71
2023/05/16 05:51:51;;;;;;;11.10;2.30;;;;;;;9.69;81.01;100892.77;108136;1257;60092;-73
2023/05/16 05:54:19;;;;;;;11.60;2.10;;;;;;;9.71;80.78;100897.77;106526;1257;75777;-70
2023/05/16 05:57:13;;;;;;;9.00;1.90;;;;;;;9.70;79.58;100905.33;105960;1260;69993;-71
2023/05/16 05:59:43;;;;;;;12.90;2.30;;;;;;;9.69;78.92;100917.48;106201;1260;71783;-70
2023/05/16 06:02:12;;;;;;;8.40;2.00;;;;;;;9.74;79.11;100923.25;106004;1262;61257;-70
2023/05/16 06:04:41;;;;;;;9.50;2.00;;;;;;;9.74;78.09;100928.68;105785;1263;61330;-72
2023/05/16 06:07:08;;;;;;;9.70;2.00;;;;;;;9.80;77.69;100937.05;106198;1260;74721;-71
2023/05/16 06:09:35;;;;;;;8.20;1.80;;;;;;;9.83;77.16;100942.34;105722;1257;69662;-73
2023/05/16 06:12:03;;;;;;;11.90;1.90;;;;;;;9.89;77.25;100945.89;107600;1257;71277;-70
2023/05/16 06:14:29;;;;;;;10.60;1.90;;;;;;;9.92;76.83;100954.17;105639;1260;61250;-73
2023/05/16 06:16:56;;;;;;;15.90;2.00;;;;;;;9.95;76.60;100955.63;106576;1257;61251;-70
2023/05/16 06:19:23;;;;;;;10.40;2.00;;;;;;;10.01;76.51;100949.70;105839;1256;73431;-70
2023/05/16 06:21:50;;;;;;;9.70;1.80;;;;;;;10.06;75.96;100946.19;105858;1257;61260;-71
2023/05/16 06:24:16;;;;;;;11.60;2.20;;;;;;;10.14;76.47;100948.77;105810;1256;72459;-69
2023/05/16 06:26:45;;;;;;;12.60;2.60;;;;;;;10.17;75.72;100949.73;106162;1261;61445;-70
2023/05/16 06:29:12;;;;;;;12.10;2.10;;;;;;;10.20;75.40;100948.88;106519;1256;61219;-70
2023/05/16 06:31:38;;;;;;;7.80;1.70;;;;;;;10.27;75.54;100940.23;105877;1257;73675;-70
2023/05/16 06:34:05;;;;;;;10.40;1.60;;;;;;;10.35;74.33;100944.99;105744;1257;70924;-73
2023/05/16 06:36:32;;;;;;;14.00;2.70;;;;;;;10.38;73.35;100948.92;106397;1257;72492;-71
2023/05/16 06:38:58;;;;;;;13.60;2.20;;;;;;;10.44;73.55;100950.19;105904;1257;61384;-69
2023/05/16 06:41:25;;;;;;;11.00;1.80;;;;;;;10.51;73.42;100949.05;105856;1257;61263;-70
2023/05/16 06:43:52;;;;;;;12.00;2.00;;;;;;;10.60;72.87;100957.81;105828;1263;73133;-74
2023/05/16 06:46:18;;;;;;;9.60;1.60;;;;;;;10.68;71.66;100957.47;105670;1257;71260;-71
2023/05/16 06:48:45;;;;;;;9.30;1.90;;;;;;;10.79;71.41;100957.15;106166;1256;72718;-70
2023/05/16 06:51:12;;;;;;;11.10;1.90;;;;;;;10.91;70.80;100959.92;106176;1257;61413;-70
2023/05/16 06:53:38;;;;;;;7.90;2.00;;;;;;;10.98;70.31;100964.09;105706;1262;61205;-69
2023/05/16 06:56:05;;;;;;;12.20;2.30;;;;;;;11.07;70.38;100968.04;106213;1256;61244;-70
2023/05/16 06:58:32;;;;;;;9.90;2.00;;;;;;;11.13;69.99;100965.36;105765;1260;70126;-72
2023/05/16 07:00:58;;;;;;;16.20;2.40;;;;;;;11.27;69.37;100964.30;105920;1256;61524;-70
2023/05/16 07:03:25;;;;;;;9.60;1.90;;;;;;;11.37;68.87;100968.52;105956;1256;61938;-71
2023/05/16 07:05:52;;;;;;;9.90;1.70;;;;;;;11.47;68.17;100968.34;106365;1257;61251;-72
2023/05/16 07:08:19;;;;;;;11.00;1.80;;;;;;;11.54;67.55;100971.05;105843;1258;73459;-71
2023/05/16 07:10:46;;;;;;;10.50;2.00;;;;;;;11.61;66.90;100972.58;105912;1257;71124;-72
2023/05/16 07:13:12;;;;;;;7.20;1.40;;;;;;;11.64;65.20;100976.47;106037;1256;71751;-70
2023/05/16 07:15:39;;;;;;;9.00;1.80;;;;;;;11.53;63.22;100981.16;106413;1256;61332;-72
2023/05/16 07:18:06;;;;;;;8.70;1.50;;;;;;;11.42;63.46;100976.83;106093;1257;61311;-73
2023/05/16 07:20:33;;;;;;;8.00;1.70;;;;;;;11.46;63.40;100972.16;106147;1260;74694;-72
2023/05/16 07:23:00;;;;;;;9.50;1.50;;;;;;;11.67;63.31;100973.44;105966;1257;70448;-71
2023/05/16 07:25:27;;;;;;;5.50;1.30;;;;;;;11.82;61.81;100977.80;106067;1258;71597;-69
2023/05/16 07:27:55;;;;;;;10.00;1.40;;;;;;;11.85;60.71;100979.27;105973;1257;61304;-71
2023/05/16 07:30:21;;;;;;;8.50;1.80;;;;;;;11.85;60.61;100977.08;105832;1256;61212;-70
2023/05/16 07:32:48;;;;;;;9.70;1.90;;;;;;;11.97;61.34;100969.52;106344;1257;74706;-70
2023/05/16 07:35:15;;;;;;;8.30;1.70;;;;;;;12.17;60.87;100973.98;105995;1257;70920;-70
2023/05/16 07:37:42;;;;;;;5.90;1.50;;;;;;;12.27;59.03;100976.23;105850;1256;71499;-72
2023/05/16 07:40:12;;;;;;;7.70;1.70;;;;;;;12.35;58.04;100979.29;106514;1257;61246;-71
2023/05/16 07:42:39;;;;;;;9.70;1.40;;;;;;;12.40;58.39;100984.40;108873;1256;59372;-71
2023/05/16 07:45:06;;;;;;;9.60;1.30;;;;;;;12.65;59.77;100983.94;108277;1257;74692;-70
2023/05/16 07:47:34;;;;;;;11.20;2.10;;;;;;;12.88;58.24;100996.55;107330;1257;70000;-72
2023/05/16 07:50:01;;;;;;;9.60;1.70;;;;;;;12.76;56.73;100997.54;108474;1256;70965;-71
2023/05/16 07:52:28;;;;;;;11.10;1.80;;;;;;;12.54;56.79;100999.73;106570;1257;61468;-71
2023/05/16 07:54:55;;;;;;;11.20;1.90;;;;;;;12.25;56.34;101011.40;106282;1263;61235;-71
2023/05/16 07:57:22;;;;;;;10.60;2.20;;;;;;;12.22;56.37;101010.45;106372;1256;74989;-71
2023/05/16 07:59:51;;;;;;;8.60;1.70;;;;;;;12.24;56.29;101012.00;106450;1260;69150;-70
2023/05/16 08:02:18;;;;;;;6.40;1.40;;;;;;;12.30;55.33;101006.67;106659;1257;72737;-70
2023/05/16 08:04:45;;;;;;;7.60;1.70;;;;;;;12.51;55.29;101000.84;106171;1256;62490;-74
2023/05/16 08:07:12;;;;;;;5.70;1.10;;;;;;;12.81;54.33;101002.89;106585;1257;62879;-70
2023/05/16 08:09:39;;;;;;;6.50;1.40;;;;;;;12.99;53.40;101004.77;106407;1257;74685;-70
2023/05/16 08:12:06;;;;;;;8.70;1.60;;;;;;;13.01;53.56;101004.05;106361;1257;70003;-74
2023/05/16 08:14:33;;;;;;;6.10;1.30;;;;;;;12.95;52.49;101004.70;106147;1256;72751;-73
2023/05/16 08:17:00;;;;;;;7.30;1.80;;;;;;;12.74;51.34;101009.70;106424;1257;61228;-70
2023/05/16 08:19:28;;;;;;;5.60;1.50;;;;;;;12.50;51.94;101002.08;106351;1256;61243;-72
2023/05/16 08:21:55;;;;;;;9.30;1.60;;;;;;;12.48;53.19;100990.09;106751;1259;74645;-70
2023/05/16 08:24:22;;;;;;;7.00;1.40;;;;;;;12.62;52.71;100995.19;106294;1256;227480;-70
2023/05/16 08:26:49;;;;;;;8.50;1.30;;;;;;;12.81;53.51;100996.46;106352;1256;72663;-70
2023/05/16 08:29:16;;;;;;;7.30;1.20;;;;;;;12.93;52.02;100991.64;106228;1257;61208;-70
2023/05/16 08:31:43;;;;;;;6.30;1.40;;;;;;;12.96;51.24;101003.77;106299;1256;61279;-70
2023/05/16 08:34:09;;;;;;;6.80;1.00;;;;;;;12.86;49.56;101005.30;106427;1257;74481;-71
2023/05/16 08:36:36;;;;;;;4.90;1.10;;;;;;;12.99;50.25;101004.02;106273;1256;70113;-71
2023/05/16 08:39:03;;;;;;;7.70;1.20;;;;;;;13.17;50.59;101009.18;106511;1257;71557;-71
2023/05/16 08:41:30;;;;;;;6.00;1.60;;;;;;;13.33;50.49;100997.11;106445;1257;61286;-72
2023/05/16 08:43:57;;;;;;;7.10;1.20;;;;;;;13.35;51.77;100996.77;106944;1256;61831;-71
2023/05/16 08:46:27;;;;;;;7.20;1.20;;;;;;;13.22;50.53;101014.79;106223;1257;73587;-71
2023/05/16 08:48:58;;;;;;;7.00;1.10;;;;;;;13.28;51.61;101005.73;106115;1257;70066;-76
2023/05/16 08:51:26;;;;;;;5.20;1.20;;;;;;;13.53;48.63;101011.35;106387;1256;71222;-70
2023/05/16 08:54:14;;;;;;;4.70;1.20;;;;;;;13.79;48.17;101015.73;106875;1256;62799;-71
2023/05/16 08:56:42;;;;;;;8.60;1.80;;;;;;;13.87;48.96;101004.27;106329;1256;61260;-72
2023/05/16 08:59:11;;;;;;;6.70;1.10;;;;;;;13.70;48.44;101016.84;106245;1257;75701;-71
2023/05/16 09:01:38;;;;;;;7.80;1.30;;;;;;;13.52;48.39;101014.66;106531;1257;71301;-72
2023/05/16 09:04:07;;;;;;;6.80;1.60;;;;;;;13.59;49.51;101015.93;106572;1261;71728;-74
2023/05/16 09:06:35;;;;;;;6.70;1.40;;;;;;;13.79;48.50;101017.03;106368;1259;61340;-72
2023/05/16 09:09:03;;;;;;;4.80;1.20;;;;;;;13.86;48.57;101014.19;106568;1258;61385;-70
2023/05/16 09:11:30;;;;;;;6.70;1.40;;;;;;;13.82;48.14;101016.31;106771;1257;73218;-71
2023/05/16 09:14:01;;;;;;;10.70;2.10;;;;;;;13.90;47.97;101012.43;106349;1257;71166;-71
2023/05/16 09:16:28;;;;;;;10.20;1.20;;;;;;;14.00;48.01;101008.26;106381;1257;61263;-72
2023/05/16 09:19:00;;;;;;;4.80;1.10;;;;;;;14.20;47.75;101009.77;106423;1256;61178;-70
2023/05/16 09:21:30;;;;;;;6.30;1.10;;;;;;;14.55;47.23;101003.02;106858;1257;61178;-70
2023/05/16 09:24:04;;;;;;;6.00;1.20;;;;;;;14.72;45.45;101001.35;106297;1259;73501;-70
2023/05/16 09:26:36;;;;;;;6.30;1.40;;;;;;;14.80;44.76;100996.34;106525;1257;71150;-68
2023/05/16 09:29:11;;;;;;;7.70;1.50;;;;;;;14.76;45.82;101007.42;106487;1256;72661;-70
2023/05/16 09:31:39;;;;;;;8.60;1.40;;;;;;;14.55;46.20;101021.51;106835;1256;61283;-71
2023/05/16 09:34:12;;;;;;;7.60;1.20;;;;;;;14.37;45.93;101021.62;106516;1256;61343;-72
2023/05/16 09:36:39;;;;;;;4.00;0.90;;;;;;;14.45;45.68;101021.54;106533;1256;74762;-75
2023/05/16 09:39:10;;;;;;;5.40;1.10;;;;;;;14.64;43.66;101012.89;106309;1257;70991;-73
2023/05/16 09:41:36;;;;;;;5.10;1.30;;;;;;;14.80;44.46;101017.01;106214;1257;72803;-72
2023/05/16 09:44:05;;;;;;;7.60;1.10;;;;;;;14.81;43.98;101009.01;106051;1257;60382;-74
2023/05/16 09:46:37;;;;;;;7.40;1.10;;;;;;;14.82;43.88;101004.91;106101;1257;61375;-72
2023/05/16 09:49:04;;;;;;;8.20;1.40;;;;;;;14.77;44.83;101009.52;106687;1260;73244;-73
2023/05/16 09:51:30;;;;;;;8.60;1.30;;;;;;;14.62;44.68;101011.73;106026;1256;73229;-71
2023/05/16 09:53:59;;;;;;;6.70;0.90;;;;;;;14.39;45.01;101009.23;106298;1257;71958;-71
2023/05/16 09:56:26;;;;;;;10.80;1.80;;;;;;;14.27;46.38;101008.56;106080;1256;61328;-71
2023/05/16 09:58:52;;;;;;;5.70;0.90;;;;;;;14.17;44.97;101009.70;106519;1256;61357;-71
2023/05/16 10:01:19;;;;;;;6.00;1.30;;;;;;;14.24;43.99;101010.41;106390;1257;73330;-71
2023/05/16 10:03:46;;;;;;;5.40;1.10;;;;;;;14.46;44.16;100996.69;106181;1256;71280;-72
2023/05/16 10:06:13;;;;;;;7.40;1.00;;;;;;;14.68;44.29;101000.27;106588;1257;71136;-69
2023/05/16 10:08:42;;;;;;;6.80;1.00;;;;;;;14.82;43.16;101000.11;105933;1260;61375;-73
2023/05/16 10:11:10;;;;;;;5.60;1.20;;;;;;;15.10;43.24;100991.52;106218;1256;61179;-72
2023/05/16 10:13:38;;;;;;;4.80;0.90;;;;;;;15.27;42.18;100989.64;106272;1258;74820;-71
2023/05/16 10:16:11;;;;;;;6.70;1.40;;;;;;;15.18;43.02;100983.38;106418;1256;70423;-72
2023/05/16 10:18:39;;;;;;;7.30;1.20;;;;;;;15.31;42.87;100990.05;106378;1257;71588;-73
2023/05/16 10:21:13;;;;;;;5.50;1.10;;;;;;;15.56;41.51;100987.89;105792;1256;62106;-74
2023/05/16 10:23:41;;;;;;;4.30;0.80;;;;;;;15.53;40.73;100996.77;106572;1256;61232;-72
2023/05/16 10:26:10;;;;;;;6.90;1.30;;;;;;;15.47;41.48;100991.16;106290;1257;74735;-71
2023/05/16 10:28:39;;;;;;;5.60;1.10;;;;;;;15.39;42.07;100996.95;105743;1262;71661;-71
2023/05/16 10:31:07;;;;;;;6.30;0.90;;;;;;;15.33;41.88;100991.38;106419;1256;72405;-74
2023/05/16 10:33:34;;;;;;;5.10;1.10;;;;;;;15.37;42.16;100988.32;106458;1257;61264;-71
2023/05/16 10:36:04;;;;;;;7.10;1.40;;;;;;;15.49;41.87;100996.10;106758;1256;61166;-71
2023/05/16 10:38:31;;;;;;;4.30;1.00;;;;;;;15.63;40.20;100984.38;105847;1256;74681;-72
2023/05/16 10:40:58;;;;;;;4.20;0.90;;;;;;;15.72;40.11;100990.48;106553;1256;70364;-70
2023/05/16 10:43:32;;;;;;;4.90;1.00;;;;;;;15.78;40.81;100980.05;106632;1256;72770;-71
2023/05/16 10:46:03;;;;;;;4.60;0.90;;;;;;;15.82;39.53;100983.89;106031;1257;59731;-72
2023/05/16 10:48:32;;;;;;;3.30;0.80;;;;;;;15.80;38.74;100978.78;106864;1256;61400;-71
2023/05/16 10:51:01;;;;;;;6.00;1.10;;;;;;;15.88;39.27;100984.14;106057;1257;73449;-72
2023/05/16 10:53:30;;;;;;;4.90;0.80;;;;;;;15.82;39.92;100978.63;106611;1256;70100;-70
2023/05/16 10:56:02;;;;;;;4.80;0.90;;;;;;;15.65;38.99;100997.44;106181;1260;71736;-70
2023/05/16 10:58:33;;;;;;;5.80;1.00;;;;;;;15.56;39.21;100976.09;106240;1256;61421;-72
2023/05/16 11:01:22;;;;;;;4.30;0.90;;;;;;;15.43;38.78;100985.59;106361;1257;61289;-70
2023/05/16 11:04:01;;;;;;;5.60;1.30;;;;;;;15.36;38.87;100985.71;105880;1257;74667;-72
2023/05/16 11:06:32;;;;;;;4.80;0.90;;;;;;;15.39;37.98;100999.80;106411;1256;69542;-71
2023/05/16 11:09:16;;;;;;;4.10;0.80;;;;;;;15.44;37.63;100998.89;106493;1259;72762;-71
2023/05/16 11:11:46;;;;;;;4.10;0.70;;;;;;;15.53;36.82;100994.39;106485;1256;61262;-72
2023/05/16 11:14:22;;;;;;;3.20;0.90;;;;;;;15.55;37.72;100987.40;106234;1256;61255;-71
2023/05/16 11:17:00;;;;;;;3.40;0.90;;;;;;;15.78;37.31;100994.64;106443;1256;73436;-71
2023/05/16 11:19:44;;;;;;;4.30;1.00;;;;;;;15.82;37.49;100995.70;105968;1257;71293;-72
2023/05/16 11:22:15;;;;;;;3.00;0.60;;;;;;;15.89;36.81;100999.83;105746;1260;71538;-71
2023/05/16 11:24:51;;;;;;;3.80;1.00;;;;;;;16.08;36.53;100987.39;106762;1256;62460;-71